sensor_id;sensor_type;location;lat;lon;timestamp;temperature;humidity
6556;DHT22;3311;48.32423000;14.29074500;2022-07-15T00:01:41;22.80;72.20
6556;DHT22;3311;48.32423000;14.29074500;2022-07-15T00:04:09;23.00;71.80
6556;DHT22;3311;48.32423000;14.29074500;2022-07-15T00:06:38;23.10;72.60
6556;DHT22;3311;48.32423000;14.29074500;2022-07-15T00:09:06;23.20;72.30
6556;DHT22;3311;48.32423000;14.29074500;2022-07-15T00:11:33;23.30;71.50
6556;DHT22;3311;48.32423000;14.29074500;2022-07-15T00:14:02;23.10;72.90
6556;DHT22;3311;48.32423000;14.29074500;2022-07-15T00:16:29;23.10;72.50
6556;DHT22;3311;48.32423000;14.29074500;2022-07-15T00:18:56;22.20;70.60
6556;DHT22;3311;48.32423000;14.29074500;2022-07-15T00:21:25;23.50;71.20
6556;DHT22;3311;48.32423000;14.29074500;2022-07-15T00:23:53;23.40;71.20
6556;DHT22;3311;48.32423000;14.29074500;2022-07-15T00:26:20;23.50;70.70
6556;DHT22;3311;48.32423000;14.29074500;2022-07-15T00:28:47;23.20;72.80
6556;DHT22;3311;48.32423000;14.29074500;2022-07-15T00:31:14;23.10;73.30
6556;DHT22;3311;48.32423000;14.29074500;2022-07-15T00:33:42;23.20;72.20
6556;DHT22;3311;48.32423000;14.29074500;2022-07-15T00:36:09;23.40;71.50
6556;DHT22;3311;48.32423000;14.29074500;2022-07-15T00:38:38;23.40;71.60
6556;DHT22;3311;48.32423000;14.29074500;2022-07-15T00:41:05;23.20;72.60
6556;DHT22;3311;48.32423000;14.29074500;2022-07-15T00:43:33;22.90;74.00
6556;DHT22;3311;48.32423000;14.29074500;2022-07-15T00:46:00;23.10;73.20
6556;DHT22;3311;48.32423000;14.29074500;2022-07-15T00:48:28;23.30;72.40
6556;DHT22;3311;48.32423000;14.29074500;2022-07-15T00:50:55;23.20;73.30
6556;DHT22;3311;48.32423000;14.29074500;2022-07-15T00:53:22;23.10;73.80
6556;DHT22;3311;48.32423000;14.29074500;2022-07-15T00:55:53;23.20;73.00
6556;DHT22;3311;48.32423000;14.29074500;2022-07-15T00:58:24;23.30;72.50
6556;DHT22;3311;48.32423000;14.29074500;2022-07-15T01:00:54;23.20;73.60
6556;DHT22;3311;48.32423000;14.29074500;2022-07-15T01:03:22;23.30;72.90
6556;DHT22;3311;48.32423000;14.29074500;2022-07-15T01:05:49;23.30;73.60
6556;DHT22;3311;48.32423000;14.29074500;2022-07-15T01:08:17;22.80;75.60
6556;DHT22;3311;48.32423000;14.29074500;2022-07-15T01:10:45;22.50;76.10
6556;DHT22;3311;48.32423000;14.29074500;2022-07-15T01:13:16;22.70;74.80
6556;DHT22;3311;48.32423000;14.29074500;2022-07-15T01:15:44;22.90;73.90
6556;DHT22;3311;48.32423000;14.29074500;2022-07-15T01:18:11;23.10;73.20
6556;DHT22;3311;48.32423000;14.29074500;2022-07-15T01:20:41;23.20;72.50
6556;DHT22;3311;48.32423000;14.29074500;2022-07-15T01:23:09;23.40;72.10
6556;DHT22;3311;48.32423000;14.29074500;2022-07-15T01:25:37;23.40;71.90
6556;DHT22;3311;48.32423000;14.29074500;2022-07-15T01:28:07;23.10;73.10
6556;DHT22;3311;48.32423000;14.29074500;2022-07-15T01:30:35;22.90;73.30
6556;DHT22;3311;48.32423000;14.29074500;2022-07-15T01:33:03;22.80;73.60
6556;DHT22;3311;48.32423000;14.29074500;2022-07-15T01:35:30;23.00;73.10
6556;DHT22;3311;48.32423000;14.29074500;2022-07-15T01:37:59;23.10;72.40
6556;DHT22;3311;48.32423000;14.29074500;2022-07-15T01:40:26;23.20;71.90
6556;DHT22;3311;48.32423000;14.29074500;2022-07-15T01:42:54;23.30;71.40
6556;DHT22;3311;48.32423000;14.29074500;2022-07-15T01:45:21;23.00;72.10
6556;DHT22;3311;48.32423000;14.29074500;2022-07-15T01:47:49;22.30;74.60
6556;DHT22;3311;48.32423000;14.29074500;2022-07-15T01:50:18;22.00;75.70
6556;DHT22;3311;48.32423000;14.29074500;2022-07-15T01:52:46;22.40;74.70
6556;DHT22;3311;48.32423000;14.29074500;2022-07-15T01:55:15;22.70;73.50
6556;DHT22;3311;48.32423000;14.29074500;2022-07-15T01:57:43;22.90;73.20
6556;DHT22;3311;48.32423000;14.29074500;2022-07-15T02:00:11;22.20;74.60
6556;DHT22;3311;48.32423000;14.29074500;2022-07-15T02:02:42;22.40;75.00
6556;DHT22;3311;48.32423000;14.29074500;2022-07-15T02:05:10;22.60;73.90
6556;DHT22;3311;48.32423000;14.29074500;2022-07-15T02:07:37;22.70;73.50
6556;DHT22;3311;48.32423000;14.29074500;2022-07-15T02:10:05;22.70;73.50
6556;DHT22;3311;48.32423000;14.29074500;2022-07-15T02:12:36;22.80;73.40
6556;DHT22;3311;48.32423000;14.29074500;2022-07-15T02:15:05;22.90;73.00
6556;DHT22;3311;48.32423000;14.29074500;2022-07-15T02:17:32;23.00;72.40
6556;DHT22;3311;48.32423000;14.29074500;2022-07-15T02:20:00;23.10;72.00
6556;DHT22;3311;48.32423000;14.29074500;2022-07-15T02:22:27;23.20;71.50
6556;DHT22;3311;48.32423000;14.29074500;2022-07-15T02:24:55;23.20;71.30
6556;DHT22;3311;48.32423000;14.29074500;2022-07-15T02:27:22;23.20;71.30
6556;DHT22;3311;48.32423000;14.29074500;2022-07-15T02:29:51;23.10;72.00
6556;DHT22;3311;48.32423000;14.29074500;2022-07-15T02:32:18;23.10;72.20
6556;DHT22;3311;48.32423000;14.29074500;2022-07-15T02:34:45;23.10;72.20
6556;DHT22;3311;48.32423000;14.29074500;2022-07-15T02:37:13;23.10;72.00
6556;DHT22;3311;48.32423000;14.29074500;2022-07-15T02:39:40;22.90;72.60
6556;DHT22;3311;48.32423000;14.29074500;2022-07-15T02:42:08;23.00;72.70
6556;DHT22;3311;48.32423000;14.29074500;2022-07-15T02:44:35;23.00;72.20
6556;DHT22;3311;48.32423000;14.29074500;2022-07-15T02:47:04;23.10;71.60
6556;DHT22;3311;48.32423000;14.29074500;2022-07-15T02:49:31;23.10;71.70
6556;DHT22;3311;48.32423000;14.29074500;2022-07-15T02:51:59;23.10;72.00
6556;DHT22;3311;48.32423000;14.29074500;2022-07-15T02:54:26;23.10;72.00
6556;DHT22;3311;48.32423000;14.29074500;2022-07-15T02:56:54;22.40;73.40
6556;DHT22;3311;48.32423000;14.29074500;2022-07-15T02:59:22;22.60;73.80
6556;DHT22;3311;48.32423000;14.29074500;2022-07-15T03:01:49;22.80;72.90
6556;DHT22;3311;48.32423000;14.29074500;2022-07-15T03:04:18;23.00;72.20
6556;DHT22;3311;48.32423000;14.29074500;2022-07-15T03:06:45;23.10;71.80
6556;DHT22;3311;48.32423000;14.29074500;2022-07-15T03:09:13;23.10;71.60
6556;DHT22;3311;48.32423000;14.29074500;2022-07-15T03:11:40;23.10;71.90
6556;DHT22;3311;48.32423000;14.29074500;2022-07-15T03:14:07;23.10;72.10
6556;DHT22;3311;48.32423000;14.29074500;2022-07-15T03:16:35;23.20;71.40
6556;DHT22;3311;48.32423000;14.29074500;2022-07-15T03:19:02;23.10;71.70
6556;DHT22;3311;48.32423000;14.29074500;2022-07-15T03:21:31;23.00;72.10
6556;DHT22;3311;48.32423000;14.29074500;2022-07-15T03:23:59;23.10;72.10
6556;DHT22;3311;48.32423000;14.29074500;2022-07-15T03:26:26;23.10;72.20
6556;DHT22;3311;48.32423000;14.29074500;2022-07-15T03:28:53;23.10;72.10
6556;DHT22;3311;48.32423000;14.29074500;2022-07-15T03:31:21;23.10;72.00
6556;DHT22;3311;48.32423000;14.29074500;2022-07-15T03:33:48;23.00;72.40
6556;DHT22;3311;48.32423000;14.29074500;2022-07-15T03:36:15;23.00;72.40
6556;DHT22;3311;48.32423000;14.29074500;2022-07-15T03:38:45;22.90;72.70
6556;DHT22;3311;48.32423000;14.29074500;2022-07-15T03:41:13;23.00;72.10
6556;DHT22;3311;48.32423000;14.29074500;2022-07-15T03:43:41;23.10;72.30
6556;DHT22;3311;48.32423000;14.29074500;2022-07-15T03:46:08;23.10;72.30
6556;DHT22;3311;48.32423000;14.29074500;2022-07-15T03:48:36;23.00;72.20
6556;DHT22;3311;48.32423000;14.29074500;2022-07-15T03:51:05;23.00;72.40
6556;DHT22;3311;48.32423000;14.29074500;2022-07-15T03:53:32;23.00;72.40
6556;DHT22;3311;48.32423000;14.29074500;2022-07-15T03:56:01;23.10;72.40
6556;DHT22;3311;48.32423000;14.29074500;2022-07-15T03:58:28;23.10;72.50
6556;DHT22;3311;48.32423000;14.29074500;2022-07-15T04:00:55;23.10;72.30
6556;DHT22;3311;48.32423000;14.29074500;2022-07-15T04:03:23;23.00;72.50
6556;DHT22;3311;48.32423000;14.29074500;2022-07-15T04:05:50;23.00;72.40
6556;DHT22;3311;48.32423000;14.29074500;2022-07-15T04:08:18;23.10;72.70
6556;DHT22;3311;48.32423000;14.29074500;2022-07-15T04:10:46;23.10;72.70
6556;DHT22;3311;48.32423000;14.29074500;2022-07-15T04:13:14;23.10;72.30
6556;DHT22;3311;48.32423000;14.29074500;2022-07-15T04:15:45;23.00;72.50
6556;DHT22;3311;48.32423000;14.29074500;2022-07-15T04:18:12;22.70;72.80
6556;DHT22;3311;48.32423000;14.29074500;2022-07-15T04:20:39;22.50;73.20
6556;DHT22;3311;48.32423000;14.29074500;2022-07-15T04:23:06;21.90;74.70
6556;DHT22;3311;48.32423000;14.29074500;2022-07-15T04:25:34;21.60;75.40
6556;DHT22;3311;48.32423000;14.29074500;2022-07-15T04:28:01;21.40;75.60
6556;DHT22;3311;48.32423000;14.29074500;2022-07-15T04:30:30;21.30;76.20
6556;DHT22;3311;48.32423000;14.29074500;2022-07-15T04:32:57;21.80;75.10
6556;DHT22;3311;48.32423000;14.29074500;2022-07-15T04:35:25;21.90;74.70
6556;DHT22;3311;48.32423000;14.29074500;2022-07-15T04:37:53;21.70;75.20
6556;DHT22;3311;48.32423000;14.29074500;2022-07-15T04:40:21;22.10;74.20
6556;DHT22;3311;48.32423000;14.29074500;2022-07-15T04:42:48;22.00;73.40
6556;DHT22;3311;48.32423000;14.29074500;2022-07-15T04:45:16;21.70;74.60
6556;DHT22;3311;48.32423000;14.29074500;2022-07-15T04:47:46;21.40;75.80
6556;DHT22;3311;48.32423000;14.29074500;2022-07-15T04:50:13;21.30;75.70
6556;DHT22;3311;48.32423000;14.29074500;2022-07-15T04:52:58;21.60;74.80
6556;DHT22;3311;48.32423000;14.29074500;2022-07-15T04:55:25;21.80;74.40
6556;DHT22;3311;48.32423000;14.29074500;2022-07-15T04:57:53;21.80;74.80
6556;DHT22;3311;48.32423000;14.29074500;2022-07-15T05:00:20;21.70;74.30
6556;DHT22;3311;48.32423000;14.29074500;2022-07-15T05:02:49;21.80;74.10
6556;DHT22;3311;48.32423000;14.29074500;2022-07-15T05:05:17;22.10;73.60
6556;DHT22;3311;48.32423000;14.29074500;2022-07-15T05:07:45;22.30;73.20
6556;DHT22;3311;48.32423000;14.29074500;2022-07-15T05:10:13;22.10;73.80
6556;DHT22;3311;48.32423000;14.29074500;2022-07-15T05:12:40;22.30;73.80
6556;DHT22;3311;48.32423000;14.29074500;2022-07-15T05:15:08;22.30;72.80
6556;DHT22;3311;48.32423000;14.29074500;2022-07-15T05:17:36;22.30;73.50
6556;DHT22;3311;48.32423000;14.29074500;2022-07-15T05:20:05;22.10;73.90
6556;DHT22;3311;48.32423000;14.29074500;2022-07-15T05:22:33;21.80;75.40
6556;DHT22;3311;48.32423000;14.29074500;2022-07-15T05:25:00;21.80;75.80
6556;DHT22;3311;48.32423000;14.29074500;2022-07-15T05:27:28;21.70;75.40
6556;DHT22;3311;48.32423000;14.29074500;2022-07-15T05:29:55;21.80;74.60
6556;DHT22;3311;48.32423000;14.29074500;2022-07-15T05:32:22;21.80;73.80
6556;DHT22;3311;48.32423000;14.29074500;2022-07-15T05:34:50;22.00;73.30
6556;DHT22;3311;48.32423000;14.29074500;2022-07-15T05:37:18;22.00;72.80
6556;DHT22;3311;48.32423000;14.29074500;2022-07-15T05:39:46;22.20;72.50
6556;DHT22;3311;48.32423000;14.29074500;2022-07-15T05:42:20;22.60;71.90
6556;DHT22;3311;48.32423000;14.29074500;2022-07-15T05:44:47;22.80;71.00
6556;DHT22;3311;48.32423000;14.29074500;2022-07-15T05:47:15;23.00;70.30
6556;DHT22;3311;48.32423000;14.29074500;2022-07-15T05:49:42;23.10;69.80
6556;DHT22;3311;48.32423000;14.29074500;2022-07-15T05:52:10;23.30;68.40
6556;DHT22;3311;48.32423000;14.29074500;2022-07-15T05:54:38;23.40;67.80
6556;DHT22;3311;48.32423000;14.29074500;2022-07-15T05:57:06;23.50;66.60
6556;DHT22;3311;48.32423000;14.29074500;2022-07-15T05:59:33;23.50;65.30
6556;DHT22;3311;48.32423000;14.29074500;2022-07-15T06:02:00;23.50;65.70
6556;DHT22;3311;48.32423000;14.29074500;2022-07-15T06:04:28;23.40;64.50
6556;DHT22;3311;48.32423000;14.29074500;2022-07-15T06:06:55;23.40;65.60
6556;DHT22;3311;48.32423000;14.29074500;2022-07-15T06:09:23;23.50;64.60
6556;DHT22;3311;48.32423000;14.29074500;2022-07-15T06:11:52;23.50;64.50
6556;DHT22;3311;48.32423000;14.29074500;2022-07-15T06:14:19;23.50;63.70
6556;DHT22;3311;48.32423000;14.29074500;2022-07-15T06:16:48;23.50;64.50
6556;DHT22;3311;48.32423000;14.29074500;2022-07-15T06:19:15;23.40;62.10
6556;DHT22;3311;48.32423000;14.29074500;2022-07-15T06:21:42;23.40;62.20
6556;DHT22;3311;48.32423000;14.29074500;2022-07-15T06:24:09;23.40;63.10
6556;DHT22;3311;48.32423000;14.29074500;2022-07-15T06:26:37;23.50;63.10
6556;DHT22;3311;48.32423000;14.29074500;2022-07-15T06:29:06;23.70;63.10
6556;DHT22;3311;48.32423000;14.29074500;2022-07-15T06:31:35;23.90;62.50
6556;DHT22;3311;48.32423000;14.29074500;2022-07-15T06:34:06;24.00;61.90
6556;DHT22;3311;48.32423000;14.29074500;2022-07-15T06:36:34;24.10;61.70
6556;DHT22;3311;48.32423000;14.29074500;2022-07-15T06:39:01;24.10;61.20
6556;DHT22;3311;48.32423000;14.29074500;2022-07-15T06:41:29;24.20;60.40
6556;DHT22;3311;48.32423000;14.29074500;2022-07-15T06:43:58;24.20;59.40
6556;DHT22;3311;48.32423000;14.29074500;2022-07-15T06:46:27;24.10;60.10
6556;DHT22;3311;48.32423000;14.29074500;2022-07-15T06:48:54;24.30;59.20
6556;DHT22;3311;48.32423000;14.29074500;2022-07-15T06:51:21;24.30;59.60
6556;DHT22;3311;48.32423000;14.29074500;2022-07-15T06:53:49;24.40;59.50
6556;DHT22;3311;48.32423000;14.29074500;2022-07-15T06:56:16;24.40;59.40
6556;DHT22;3311;48.32423000;14.29074500;2022-07-15T06:58:43;24.30;59.10
6556;DHT22;3311;48.32423000;14.29074500;2022-07-15T07:01:11;24.20;58.90
6556;DHT22;3311;48.32423000;14.29074500;2022-07-15T07:03:39;24.20;58.30
6556;DHT22;3311;48.32423000;14.29074500;2022-07-15T07:06:07;24.20;58.70
6556;DHT22;3311;48.32423000;14.29074500;2022-07-15T07:08:35;24.10;57.90
6556;DHT22;3311;48.32423000;14.29074500;2022-07-15T07:11:02;24.10;58.10
6556;DHT22;3311;48.32423000;14.29074500;2022-07-15T07:13:29;24.20;58.00
6556;DHT22;3311;48.32423000;14.29074500;2022-07-15T07:15:57;24.30;58.00
6556;DHT22;3311;48.32423000;14.29074500;2022-07-15T07:18:24;24.40;58.60
6556;DHT22;3311;48.32423000;14.29074500;2022-07-15T07:20:53;24.50;59.00
6556;DHT22;3311;48.32423000;14.29074500;2022-07-15T07:23:22;24.60;58.10
6556;DHT22;3311;48.32423000;14.29074500;2022-07-15T07:25:52;24.60;58.60
6556;DHT22;3311;48.32423000;14.29074500;2022-07-15T07:28:20;24.60;58.70
6556;DHT22;3311;48.32423000;14.29074500;2022-07-15T07:30:47;24.70;58.80
6556;DHT22;3311;48.32423000;14.29074500;2022-07-15T07:33:16;24.70;58.60
6556;DHT22;3311;48.32423000;14.29074500;2022-07-15T07:35:43;24.70;58.60
6556;DHT22;3311;48.32423000;14.29074500;2022-07-15T07:38:12;24.70;57.50
6556;DHT22;3311;48.32423000;14.29074500;2022-07-15T07:40:39;24.80;57.20
6556;DHT22;3311;48.32423000;14.29074500;2022-07-15T07:43:07;24.80;57.80
6556;DHT22;3311;48.32423000;14.29074500;2022-07-15T07:45:34;24.80;57.40
6556;DHT22;3311;48.32423000;14.29074500;2022-07-15T07:48:01;24.90;57.10
6556;DHT22;3311;48.32423000;14.29074500;2022-07-15T07:50:29;24.90;57.20
6556;DHT22;3311;48.32423000;14.29074500;2022-07-15T07:52:56;24.80;56.60
6556;DHT22;3311;48.32423000;14.29074500;2022-07-15T07:55:25;24.80;56.50
6556;DHT22;3311;48.32423000;14.29074500;2022-07-15T07:57:53;24.90;56.80
6556;DHT22;3311;48.32423000;14.29074500;2022-07-15T08:00:22;24.90;56.90
6556;DHT22;3311;48.32423000;14.29074500;2022-07-15T08:02:49;25.00;56.90
6556;DHT22;3311;48.32423000;14.29074500;2022-07-15T08:05:17;25.00;57.50
6556;DHT22;3311;48.32423000;14.29074500;2022-07-15T08:07:56;25.20;57.20
6556;DHT22;3311;48.32423000;14.29074500;2022-07-15T08:10:42;23.50;55.20
6556;DHT22;3311;48.32423000;14.29074500;2022-07-15T08:13:10;25.10;57.20
6556;DHT22;3311;48.32423000;14.29074500;2022-07-15T08:15:39;24.90;57.50
6556;DHT22;3311;48.32423000;14.29074500;2022-07-15T08:18:06;24.70;57.60
6556;DHT22;3311;48.32423000;14.29074500;2022-07-15T08:20:34;24.60;57.50
6556;DHT22;3311;48.32423000;14.29074500;2022-07-15T08:23:01;24.60;57.80
6556;DHT22;3311;48.32423000;14.29074500;2022-07-15T08:25:31;24.50;57.90
6556;DHT22;3311;48.32423000;14.29074500;2022-07-15T08:28:01;24.40;58.40
6556;DHT22;3311;48.32423000;14.29074500;2022-07-15T08:30:30;24.60;57.90
6556;DHT22;3311;48.32423000;14.29074500;2022-07-15T08:32:58;24.70;57.10
6556;DHT22;3311;48.32423000;14.29074500;2022-07-15T08:35:26;24.70;56.80
6556;DHT22;3311;48.32423000;14.29074500;2022-07-15T08:37:54;24.70;57.20
6556;DHT22;3311;48.32423000;14.29074500;2022-07-15T08:40:22;24.80;57.00
6556;DHT22;3311;48.32423000;14.29074500;2022-07-15T08:42:50;25.00;56.80
6556;DHT22;3311;48.32423000;14.29074500;2022-07-15T08:45:19;24.90;56.70
6556;DHT22;3311;48.32423000;14.29074500;2022-07-15T08:47:46;24.70;56.40
6556;DHT22;3311;48.32423000;14.29074500;2022-07-15T08:50:16;24.70;56.40
6556;DHT22;3311;48.32423000;14.29074500;2022-07-15T08:52:45;24.60;56.50
6556;DHT22;3311;48.32423000;14.29074500;2022-07-15T08:55:14;24.60;56.60
6556;DHT22;3311;48.32423000;14.29074500;2022-07-15T08:57:45;24.70;57.30
6556;DHT22;3311;48.32423000;14.29074500;2022-07-15T09:00:14;24.70;56.70
6556;DHT22;3311;48.32423000;14.29074500;2022-07-15T09:02:43;24.60;56.90
6556;DHT22;3311;48.32423000;14.29074500;2022-07-15T09:05:23;24.60;57.10
6556;DHT22;3311;48.32423000;14.29074500;2022-07-15T09:07:54;24.50;56.50
6556;DHT22;3311;48.32423000;14.29074500;2022-07-15T09:10:23;24.40;56.00
6556;DHT22;3311;48.32423000;14.29074500;2022-07-15T09:12:51;24.40;56.10
6556;DHT22;3311;48.32423000;14.29074500;2022-07-15T09:15:32;24.40;56.20
6556;DHT22;3311;48.32423000;14.29074500;2022-07-15T09:18:07;24.40;56.20
6556;DHT22;3311;48.32423000;14.29074500;2022-07-15T09:20:35;24.40;56.30
6556;DHT22;3311;48.32423000;14.29074500;2022-07-15T09:23:02;24.30;56.40
6556;DHT22;3311;48.32423000;14.29074500;2022-07-15T09:25:31;24.30;56.40
6556;DHT22;3311;48.32423000;14.29074500;2022-07-15T09:28:03;24.30;56.60
6556;DHT22;3311;48.32423000;14.29074500;2022-07-15T09:30:33;24.30;56.70
6556;DHT22;3311;48.32423000;14.29074500;2022-07-15T09:33:21;24.10;56.30
6556;DHT22;3311;48.32423000;14.29074500;2022-07-15T09:36:13;24.00;55.90
6556;DHT22;3311;48.32423000;14.29074500;2022-07-15T09:38:46;24.00;55.90
6556;DHT22;3311;48.32423000;14.29074500;2022-07-15T09:41:24;24.00;55.70
6556;DHT22;3311;48.32423000;14.29074500;2022-07-15T09:43:55;24.00;55.50
6556;DHT22;3311;48.32423000;14.29074500;2022-07-15T09:46:24;24.10;55.80
6556;DHT22;3311;48.32423000;14.29074500;2022-07-15T09:48:53;24.10;56.00
6556;DHT22;3311;48.32423000;14.29074500;2022-07-15T09:51:21;24.10;56.00
6556;DHT22;3311;48.32423000;14.29074500;2022-07-15T09:53:50;24.10;55.90
6556;DHT22;3311;48.32423000;14.29074500;2022-07-15T09:56:20;24.10;55.50
6556;DHT22;3311;48.32423000;14.29074500;2022-07-15T09:58:52;24.10;55.40
6556;DHT22;3311;48.32423000;14.29074500;2022-07-15T10:01:19;24.20;55.40
6556;DHT22;3311;48.32423000;14.29074500;2022-07-15T10:03:49;24.10;55.50
6556;DHT22;3311;48.32423000;14.29074500;2022-07-15T10:06:18;24.10;55.30
6556;DHT22;3311;48.32423000;14.29074500;2022-07-15T10:08:48;24.00;55.40
6556;DHT22;3311;48.32423000;14.29074500;2022-07-15T10:11:15;24.10;55.40
6556;DHT22;3311;48.32423000;14.29074500;2022-07-15T10:14:26;24.00;55.40
6556;DHT22;3311;48.32423000;14.29074500;2022-07-15T10:17:21;24.00;55.90
6556;DHT22;3311;48.32423000;14.29074500;2022-07-15T10:23:21;24.10;56.50
6556;DHT22;3311;48.32423000;14.29074500;2022-07-15T10:26:06;24.10;56.50
6556;DHT22;3311;48.32423000;14.29074500;2022-07-15T10:28:50;24.10;56.20
6556;DHT22;3311;48.32423000;14.29074500;2022-07-15T10:31:19;24.10;55.00
6556;DHT22;3311;48.32423000;14.29074500;2022-07-15T10:34:17;24.00;54.60
6556;DHT22;3311;48.32423000;14.29074500;2022-07-15T10:36:57;24.00;55.00
6556;DHT22;3311;48.32423000;14.29074500;2022-07-15T10:39:29;24.00;54.60
6556;DHT22;3311;48.32423000;14.29074500;2022-07-15T10:42:14;24.00;53.90
6556;DHT22;3311;48.32423000;14.29074500;2022-07-15T10:45:03;24.00;53.90
6556;DHT22;3311;48.32423000;14.29074500;2022-07-15T10:47:31;24.00;53.80
6556;DHT22;3311;48.32423000;14.29074500;2022-07-15T10:49:59;24.00;54.10
6556;DHT22;3311;48.32423000;14.29074500;2022-07-15T10:52:28;24.00;54.40
6556;DHT22;3311;48.32423000;14.29074500;2022-07-15T10:55:04;24.00;54.90
6556;DHT22;3311;48.32423000;14.29074500;2022-07-15T10:57:52;24.00;55.10
6556;DHT22;3311;48.32423000;14.29074500;2022-07-15T11:00:29;24.10;55.10
6556;DHT22;3311;48.32423000;14.29074500;2022-07-15T11:03:08;24.10;55.10
6556;DHT22;3311;48.32423000;14.29074500;2022-07-15T11:05:42;24.10;55.00
6556;DHT22;3311;48.32423000;14.29074500;2022-07-15T11:08:48;24.10;54.60
6556;DHT22;3311;48.32423000;14.29074500;2022-07-15T11:11:46;24.00;54.30
6556;DHT22;3311;48.32423000;14.29074500;2022-07-15T11:14:40;24.00;54.00
6556;DHT22;3311;48.32423000;14.29074500;2022-07-15T11:17:07;24.00;54.20
6556;DHT22;3311;48.32423000;14.29074500;2022-07-15T11:19:35;24.10;54.40
6556;DHT22;3311;48.32423000;14.29074500;2022-07-15T11:22:04;24.00;54.10
6556;DHT22;3311;48.32423000;14.29074500;2022-07-15T11:24:34;24.00;54.00
6556;DHT22;3311;48.32423000;14.29074500;2022-07-15T11:27:04;24.10;54.30
6556;DHT22;3311;48.32423000;14.29074500;2022-07-15T11:29:45;24.00;54.10
6556;DHT22;3311;48.32423000;14.29074500;2022-07-15T11:32:14;24.00;53.80
6556;DHT22;3311;48.32423000;14.29074500;2022-07-15T11:34:43;24.00;53.60
6556;DHT22;3311;48.32423000;14.29074500;2022-07-15T11:37:11;24.00;53.20
6556;DHT22;3311;48.32423000;14.29074500;2022-07-15T11:39:45;24.00;53.00
6556;DHT22;3311;48.32423000;14.29074500;2022-07-15T11:42:22;24.00;53.10
6556;DHT22;3311;48.32423000;14.29074500;2022-07-15T11:45:08;24.00;53.70
6556;DHT22;3311;48.32423000;14.29074500;2022-07-15T11:47:50;24.00;53.60
6556;DHT22;3311;48.32423000;14.29074500;2022-07-15T11:50:18;24.00;54.10
6556;DHT22;3311;48.32423000;14.29074500;2022-07-15T11:52:46;24.00;54.00
6556;DHT22;3311;48.32423000;14.29074500;2022-07-15T11:55:14;24.00;53.90
6556;DHT22;3311;48.32423000;14.29074500;2022-07-15T11:57:47;24.00;54.00
6556;DHT22;3311;48.32423000;14.29074500;2022-07-15T12:00:15;24.00;53.60
6556;DHT22;3311;48.32423000;14.29074500;2022-07-15T12:02:42;24.00;53.60
6556;DHT22;3311;48.32423000;14.29074500;2022-07-15T12:05:13;24.00;53.80
6556;DHT22;3311;48.32423000;14.29074500;2022-07-15T12:07:41;24.00;54.40
6556;DHT22;3311;48.32423000;14.29074500;2022-07-15T12:10:11;24.00;54.60
6556;DHT22;3311;48.32423000;14.29074500;2022-07-15T12:12:51;24.00;54.70
6556;DHT22;3311;48.32423000;14.29074500;2022-07-15T12:15:22;24.00;54.60
6556;DHT22;3311;48.32423000;14.29074500;2022-07-15T12:17:49;24.00;54.00
6556;DHT22;3311;48.32423000;14.29074500;2022-07-15T12:20:17;24.00;53.60
6556;DHT22;3311;48.32423000;14.29074500;2022-07-15T12:23:11;24.00;53.70
6556;DHT22;3311;48.32423000;14.29074500;2022-07-15T12:25:38;24.00;54.10
6556;DHT22;3311;48.32423000;14.29074500;2022-07-15T12:28:06;24.00;54.00
6556;DHT22;3311;48.32423000;14.29074500;2022-07-15T12:30:36;24.00;53.80
6556;DHT22;3311;48.32423000;14.29074500;2022-07-15T12:33:17;24.00;54.20
6556;DHT22;3311;48.32423000;14.29074500;2022-07-15T12:35:49;24.00;54.00
6556;DHT22;3311;48.32423000;14.29074500;2022-07-15T12:38:28;24.00;53.00
6556;DHT22;3311;48.32423000;14.29074500;2022-07-15T12:41:05;24.00;52.50
6556;DHT22;3311;48.32423000;14.29074500;2022-07-15T12:43:49;24.00;52.20
6556;DHT22;3311;48.32423000;14.29074500;2022-07-15T12:46:18;24.00;52.30
6556;DHT22;3311;48.32423000;14.29074500;2022-07-15T12:48:47;24.00;51.90
6556;DHT22;3311;48.32423000;14.29074500;2022-07-15T12:51:15;24.00;50.60
6556;DHT22;3311;48.32423000;14.29074500;2022-07-15T12:53:44;24.00;50.50
6556;DHT22;3311;48.32423000;14.29074500;2022-07-15T12:56:11;24.00;50.40
6556;DHT22;3311;48.32423000;14.29074500;2022-07-15T12:58:38;24.00;50.20
6556;DHT22;3311;48.32423000;14.29074500;2022-07-15T13:01:08;24.10;50.50
6556;DHT22;3311;48.32423000;14.29074500;2022-07-15T13:03:37;24.10;50.00
6556;DHT22;3311;48.32423000;14.29074500;2022-07-15T13:06:05;24.10;49.70
6556;DHT22;3311;48.32423000;14.29074500;2022-07-15T13:08:36;24.10;50.00
6556;DHT22;3311;48.32423000;14.29074500;2022-07-15T13:11:05;24.10;49.70
6556;DHT22;3311;48.32423000;14.29074500;2022-07-15T13:13:33;24.10;48.60
6556;DHT22;3311;48.32423000;14.29074500;2022-07-15T13:16:02;24.10;48.50
6556;DHT22;3311;48.32423000;14.29074500;2022-07-15T13:18:29;24.10;48.90
6556;DHT22;3311;48.32423000;14.29074500;2022-07-15T13:20:58;24.10;49.20
6556;DHT22;3311;48.32423000;14.29074500;2022-07-15T13:23:26;24.10;49.70
6556;DHT22;3311;48.32423000;14.29074500;2022-07-15T13:25:54;24.10;49.00
6556;DHT22;3311;48.32423000;14.29074500;2022-07-15T13:28:21;24.10;48.10
6556;DHT22;3311;48.32423000;14.29074500;2022-07-15T13:30:52;24.10;46.60
6556;DHT22;3311;48.32423000;14.29074500;2022-07-15T13:33:19;24.10;46.50
6556;DHT22;3311;48.32423000;14.29074500;2022-07-15T13:35:47;24.10;46.30
6556;DHT22;3311;48.32423000;14.29074500;2022-07-15T13:38:16;24.10;46.30
6556;DHT22;3311;48.32423000;14.29074500;2022-07-15T13:40:43;24.10;46.20
6556;DHT22;3311;48.32423000;14.29074500;2022-07-15T13:43:10;24.10;46.70
6556;DHT22;3311;48.32423000;14.29074500;2022-07-15T13:45:38;24.10;46.70
6556;DHT22;3311;48.32423000;14.29074500;2022-07-15T13:48:05;24.10;47.00
6556;DHT22;3311;48.32423000;14.29074500;2022-07-15T13:50:32;24.10;46.90
6556;DHT22;3311;48.32423000;14.29074500;2022-07-15T13:53:19;24.20;47.10